sensor_id;sensor_type;location;lat;lon;timestamp;P1;durP1;ratioP1;P2;durP2;ratioP2
19867;SDS011;10096;51.112;6.776;2023-09-18T00:00:03;10.10;;;7.95;;
19867;SDS011;10096;51.112;6.776;2023-09-18T00:02:33;13.43;;;8.95;;
19867;SDS011;10096;51.112;6.776;2023-09-18T00:05:00;9.48;;;8.57;;
19867;SDS011;10096;51.112;6.776;2023-09-18T00:07:27;10.82;;;9.45;;
19867;SDS011;10096;51.112;6.776;2023-09-18T00:09:54;11.90;;;9.50;;
19867;SDS011;10096;51.112;6.776;2023-09-18T00:12:21;10.82;;;8.90;;
19867;SDS011;10096;51.112;6.776;2023-09-18T00:14:49;10.18;;;9.05;;
19867;SDS011;10096;51.112;6.776;2023-09-18T00:17:16;9.82;;;8.82;;
19867;SDS011;10096;51.112;6.776;2023-09-18T00:19:44;11.75;;;8.30;;
19867;SDS011;10096;51.112;6.776;2023-09-18T00:22:11;10.95;;;8.07;;
19867;SDS011;10096;51.112;6.776;2023-09-18T00:24:37;9.80;;;7.63;;
19867;SDS011;10096;51.112;6.776;2023-09-18T00:27:04;9.55;;;7.38;;
19867;SDS011;10096;51.112;6.776;2023-09-18T00:29:31;11.27;;;7.65;;
19867;SDS011;10096;51.112;6.776;2023-09-18T00:32:00;11.38;;;8.07;;
19867;SDS011;10096;51.112;6.776;2023-09-18T00:34:27;9.85;;;7.88;;
19867;SDS011;10096;51.112;6.776;2023-09-18T00:36:56;9.00;;;7.53;;
19867;SDS011;10096;51.112;6.776;2023-09-18T00:39:24;8.45;;;7.60;;
19867;SDS011;10096;51.112;6.776;2023-09-18T00:41:51;8.05;;;7.25;;
19867;SDS011;10096;51.112;6.776;2023-09-18T00:44:19;8.43;;;7.57;;
19867;SDS011;10096;51.112;6.776;2023-09-18T00:46:46;10.00;;;7.68;;
19867;SDS011;10096;51.112;6.776;2023-09-18T00:49:18;9.20;;;7.55;;
19867;SDS011;10096;51.112;6.776;2023-09-18T00:51:46;10.25;;;8.05;;
19867;SDS011;10096;51.112;6.776;2023-09-18T00:54:13;9.95;;;7.82;;
19867;SDS011;10096;51.112;6.776;2023-09-18T00:56:43;12.13;;;8.25;;
19867;SDS011;10096;51.112;6.776;2023-09-18T00:59:09;8.32;;;7.35;;
19867;SDS011;10096;51.112;6.776;2023-09-18T01:01:37;11.18;;;7.85;;
19867;SDS011;10096;51.112;6.776;2023-09-18T01:04:06;9.95;;;8.00;;
19867;SDS011;10096;51.112;6.776;2023-09-18T01:06:36;8.95;;;8.00;;
19867;SDS011;10096;51.112;6.776;2023-09-18T01:09:03;9.57;;;7.20;;
19867;SDS011;10096;51.112;6.776;2023-09-18T01:11:41;10.88;;;6.82;;
19867;SDS011;10096;51.112;6.776;2023-09-18T01:14:17;8.65;;;7.25;;
19867;SDS011;10096;51.112;6.776;2023-09-18T01:16:51;11.18;;;7.32;;
19867;SDS011;10096;51.112;6.776;2023-09-18T01:19:34;8.85;;;7.07;;
19867;SDS011;10096;51.112;6.776;2023-09-18T01:22:04;9.00;;;7.30;;
19867;SDS011;10096;51.112;6.776;2023-09-18T01:24:34;9.80;;;7.60;;
19867;SDS011;10096;51.112;6.776;2023-09-18T01:27:01;10.18;;;7.38;;
19867;SDS011;10096;51.112;6.776;2023-09-18T01:29:29;10.88;;;7.10;;
19867;SDS011;10096;51.112;6.776;2023-09-18T01:31:57;11.30;;;7.38;;
19867;SDS011;10096;51.112;6.776;2023-09-18T01:34:25;10.60;;;7.18;;
19867;SDS011;10096;51.112;6.776;2023-09-18T01:36:57;9.20;;;7.15;;
19867;SDS011;10096;51.112;6.776;2023-09-18T01:39:25;10.18;;;7.22;;
19867;SDS011;10096;51.112;6.776;2023-09-18T01:41:57;12.15;;;7.50;;
19867;SDS011;10096;51.112;6.776;2023-09-18T01:44:25;8.73;;;7.10;;
19867;SDS011;10096;51.112;6.776;2023-09-18T01:46:52;10.32;;;6.93;;
19867;SDS011;10096;51.112;6.776;2023-09-18T01:49:26;8.57;;;7.13;;
19867;SDS011;10096;51.112;6.776;2023-09-18T01:51:54;8.18;;;6.82;;
19867;SDS011;10096;51.112;6.776;2023-09-18T01:54:21;8.50;;;7.45;;
19867;SDS011;10096;51.112;6.776;2023-09-18T01:56:48;8.88;;;7.53;;
19867;SDS011;10096;51.112;6.776;2023-09-18T01:59:16;7.57;;;6.78;;
19867;SDS011;10096;51.112;6.776;2023-09-18T02:01:43;7.93;;;6.60;;
19867;SDS011;10096;51.112;6.776;2023-09-18T02:04:10;10.60;;;7.13;;
19867;SDS011;10096;51.112;6.776;2023-09-18T02:06:37;9.80;;;6.32;;
19867;SDS011;10096;51.112;6.776;2023-09-18T02:09:06;10.98;;;7.22;;
19867;SDS011;10096;51.112;6.776;2023-09-18T02:11:35;8.23;;;6.20;;
19867;SDS011;10096;51.112;6.776;2023-09-18T02:14:03;8.35;;;7.05;;
19867;SDS011;10096;51.112;6.776;2023-09-18T02:16:32;10.25;;;6.80;;
19867;SDS011;10096;51.112;6.776;2023-09-18T02:19:01;11.73;;;7.40;;
19867;SDS011;10096;51.112;6.776;2023-09-18T02:21:28;11.25;;;7.57;;
19867;SDS011;10096;51.112;6.776;2023-09-18T02:23:55;10.65;;;7.30;;
19867;SDS011;10096;51.112;6.776;2023-09-18T02:26:23;9.57;;;6.20;;
19867;SDS011;10096;51.112;6.776;2023-09-18T02:28:51;8.45;;;6.57;;
19867;SDS011;10096;51.112;6.776;2023-09-18T02:31:19;8.45;;;6.57;;
19867;SDS011;10096;51.112;6.776;2023-09-18T02:33:50;9.70;;;7.20;;
19867;SDS011;10096;51.112;6.776;2023-09-18T02:36:17;8.88;;;6.60;;
19867;SDS011;10096;51.112;6.776;2023-09-18T02:38:44;9.55;;;6.72;;
19867;SDS011;10096;51.112;6.776;2023-09-18T02:41:11;9.20;;;6.57;;
19867;SDS011;10096;51.112;6.776;2023-09-18T02:43:38;9.18;;;7.20;;
19867;SDS011;10096;51.112;6.776;2023-09-18T02:46:05;8.63;;;6.88;;
19867;SDS011;10096;51.112;6.776;2023-09-18T02:48:32;10.95;;;7.18;;
19867;SDS011;10096;51.112;6.776;2023-09-18T02:51:01;10.55;;;7.15;;
19867;SDS011;10096;51.112;6.776;2023-09-18T02:53:28;10.60;;;7.28;;
19867;SDS011;10096;51.112;6.776;2023-09-18T02:55:56;10.40;;;7.10;;
19867;SDS011;10096;51.112;6.776;2023-09-18T02:58:23;9.95;;;7.13;;
19867;SDS011;10096;51.112;6.776;2023-09-18T03:00:51;9.70;;;7.35;;
19867;SDS011;10096;51.112;6.776;2023-09-18T03:03:19;9.98;;;7.45;;
19867;SDS011;10096;51.112;6.776;2023-09-18T03:05:46;9.30;;;7.38;;
19867;SDS011;10096;51.112;6.776;2023-09-18T03:08:15;10.50;;;7.53;;
19867;SDS011;10096;51.112;6.776;2023-09-18T03:10:42;7.85;;;6.65;;
19867;SDS011;10096;51.112;6.776;2023-09-18T03:13:11;10.35;;;7.60;;
19867;SDS011;10096;51.112;6.776;2023-09-18T03:15:40;9.07;;;7.43;;
19867;SDS011;10096;51.112;6.776;2023-09-18T03:18:10;7.95;;;7.13;;
19867;SDS011;10096;51.112;6.776;2023-09-18T03:20:37;12.23;;;7.30;;
19867;SDS011;10096;51.112;6.776;2023-09-18T03:23:04;10.90;;;7.45;;
19867;SDS011;10096;51.112;6.776;2023-09-18T03:25:32;8.55;;;6.95;;
19867;SDS011;10096;51.112;6.776;2023-09-18T03:27:59;9.73;;;7.78;;
19867;SDS011;10096;51.112;6.776;2023-09-18T03:30:26;9.23;;;7.50;;
19867;SDS011;10096;51.112;6.776;2023-09-18T03:32:53;11.15;;;8.30;;
19867;SDS011;10096;51.112;6.776;2023-09-18T03:35:20;11.00;;;7.72;;
19867;SDS011;10096;51.112;6.776;2023-09-18T03:37:51;10.48;;;7.18;;
19867;SDS011;10096;51.112;6.776;2023-09-18T03:40:21;12.18;;;8.05;;
19867;SDS011;10096;51.112;6.776;2023-09-18T03:42:50;8.48;;;6.60;;
19867;SDS011;10096;51.112;6.776;2023-09-18T03:45:17;10.10;;;7.47;;
19867;SDS011;10096;51.112;6.776;2023-09-18T03:47:44;9.85;;;7.43;;
19867;SDS011;10096;51.112;6.776;2023-09-18T03:50:12;11.48;;;7.40;;
19867;SDS011;10096;51.112;6.776;2023-09-18T03:52:39;9.52;;;6.95;;
19867;SDS011;10096;51.112;6.776;2023-09-18T03:55:07;12.35;;;7.03;;
19867;SDS011;10096;51.112;6.776;2023-09-18T03:57:34;9.23;;;7.28;;
19867;SDS011;10096;51.112;6.776;2023-09-18T04:00:05;11.00;;;6.40;;
19867;SDS011;10096;51.112;6.776;2023-09-18T04:02:33;9.27;;;7.18;;
19867;SDS011;10096;51.112;6.776;2023-09-18T04:05:00;9.93;;;7.15;;
19867;SDS011;10096;51.112;6.776;2023-09-18T04:07:31;13.65;;;7.65;;
19867;SDS011;10096;51.112;6.776;2023-09-18T04:09:59;7.65;;;6.65;;
19867;SDS011;10096;51.112;6.776;2023-09-18T04:12:25;13.48;;;7.75;;
19867;SDS011;10096;51.112;6.776;2023-09-18T04:14:52;11.25;;;6.10;;
19867;SDS011;10096;51.112;6.776;2023-09-18T04:17:23;9.43;;;6.50;;
19867;SDS011;10096;51.112;6.776;2023-09-18T04:19:52;9.75;;;6.25;;
19867;SDS011;10096;51.112;6.776;2023-09-18T04:22:19;11.65;;;6.53;;
19867;SDS011;10096;51.112;6.776;2023-09-18T04:24:46;7.53;;;5.80;;
19867;SDS011;10096;51.112;6.776;2023-09-18T04:27:14;7.32;;;5.90;;
19867;SDS011;10096;51.112;6.776;2023-09-18T04:29:40;10.27;;;6.30;;
19867;SDS011;10096;51.112;6.776;2023-09-18T04:32:07;6.28;;;5.55;;
19867;SDS011;10096;51.112;6.776;2023-09-18T04:34:36;7.70;;;5.63;;
19867;SDS011;10096;51.112;6.776;2023-09-18T04:37:04;7.82;;;5.28;;
19867;SDS011;10096;51.112;6.776;2023-09-18T04:39:31;9.13;;;6.00;;
19867;SDS011;10096;51.112;6.776;2023-09-18T04:42:00;6.85;;;5.30;;
19867;SDS011;10096;51.112;6.776;2023-09-18T04:44:30;8.35;;;5.47;;
19867;SDS011;10096;51.112;6.776;2023-09-18T04:46:57;9.80;;;5.82;;
19867;SDS011;10096;51.112;6.776;2023-09-18T04:49:24;7.55;;;5.72;;
19867;SDS011;10096;51.112;6.776;2023-09-18T04:51:54;9.85;;;5.50;;
19867;SDS011;10096;51.112;6.776;2023-09-18T04:54:21;8.98;;;5.45;;
19867;SDS011;10096;51.112;6.776;2023-09-18T04:56:48;10.00;;;5.82;;
19867;SDS011;10096;51.112;6.776;2023-09-18T04:59:22;8.10;;;5.82;;
19867;SDS011;10096;51.112;6.776;2023-09-18T05:01:49;7.07;;;6.35;;
19867;SDS011;10096;51.112;6.776;2023-09-18T05:04:16;7.60;;;5.50;;
19867;SDS011;10096;51.112;6.776;2023-09-18T05:06:43;9.60;;;5.57;;
19867;SDS011;10096;51.112;6.776;2023-09-18T05:09:12;8.57;;;5.50;;
19867;SDS011;10096;51.112;6.776;2023-09-18T05:11:49;6.63;;;5.57;;
19867;SDS011;10096;51.112;6.776;2023-09-18T05:14:16;9.52;;;5.55;;
19867;SDS011;10096;51.112;6.776;2023-09-18T05:16:43;8.43;;;5.30;;
19867;SDS011;10096;51.112;6.776;2023-09-18T05:19:10;7.85;;;4.93;;
19867;SDS011;10096;51.112;6.776;2023-09-18T05:21:37;12.23;;;5.30;;
19867;SDS011;10096;51.112;6.776;2023-09-18T05:24:04;12.15;;;8.30;;
19867;SDS011;10096;51.112;6.776;2023-09-18T05:26:32;8.65;;;5.35;;
19867;SDS011;10096;51.112;6.776;2023-09-18T05:28:59;8.18;;;5.72;;
19867;SDS011;10096;51.112;6.776;2023-09-18T05:31:27;10.02;;;6.15;;
19867;SDS011;10096;51.112;6.776;2023-09-18T05:33:56;9.93;;;5.78;;
19867;SDS011;10096;51.112;6.776;2023-09-18T05:36:23;8.52;;;5.82;;
19867;SDS011;10096;51.112;6.776;2023-09-18T05:38:50;9.68;;;5.78;;
19867;SDS011;10096;51.112;6.776;2023-09-18T05:41:17;8.95;;;6.10;;
19867;SDS011;10096;51.112;6.776;2023-09-18T05:43:46;9.95;;;6.50;;
19867;SDS011;10096;51.112;6.776;2023-09-18T05:46:13;8.65;;;5.72;;
19867;SDS011;10096;51.112;6.776;2023-09-18T05:48:42;10.77;;;5.63;;
19867;SDS011;10096;51.112;6.776;2023-09-18T05:51:10;8.82;;;6.40;;
19867;SDS011;10096;51.112;6.776;2023-09-18T05:53:39;8.15;;;5.90;;
19867;SDS011;10096;51.112;6.776;2023-09-18T05:56:06;10.90;;;6.30;;
19867;SDS011;10096;51.112;6.776;2023-09-18T05:58:37;9.02;;;6.38;;
19867;SDS011;10096;51.112;6.776;2023-09-18T06:01:06;8.85;;;5.30;;
19867;SDS011;10096;51.112;6.776;2023-09-18T06:03:34;11.15;;;5.93;;
19867;SDS011;10096;51.112;6.776;2023-09-18T06:06:03;9.07;;;5.10;;
19867;SDS011;10096;51.112;6.776;2023-09-18T06:08:31;7.32;;;5.10;;
19867;SDS011;10096;51.112;6.776;2023-09-18T06:10:58;6.82;;;5.03;;
19867;SDS011;10096;51.112;6.776;2023-09-18T06:13:28;7.93;;;5.72;;
19867;SDS011;10096;51.112;6.776;2023-09-18T06:15:55;8.57;;;5.88;;
19867;SDS011;10096;51.112;6.776;2023-09-18T06:18:25;8.75;;;4.80;;
19867;SDS011;10096;51.112;6.776;2023-09-18T06:20:52;6.10;;;3.65;;
19867;SDS011;10096;51.112;6.776;2023-09-18T06:23:19;9.15;;;4.55;;
19867;SDS011;10096;51.112;6.776;2023-09-18T06:25:46;6.35;;;4.65;;
19867;SDS011;10096;51.112;6.776;2023-09-18T06:28:20;8.27;;;3.95;;
19867;SDS011;10096;51.112;6.776;2023-09-18T06:30:47;6.35;;;4.00;;
19867;SDS011;10096;51.112;6.776;2023-09-18T06:33:14;6.82;;;4.55;;
19867;SDS011;10096;51.112;6.776;2023-09-18T06:35:43;5.30;;;4.25;;
19867;SDS011;10096;51.112;6.776;2023-09-18T06:38:10;10.23;;;4.35;;
19867;SDS011;10096;51.112;6.776;2023-09-18T06:40:37;7.22;;;3.80;;
19867;SDS011;10096;51.112;6.776;2023-09-18T06:43:05;6.20;;;3.90;;
19867;SDS011;10096;51.112;6.776;2023-09-18T06:45:38;9.05;;;4.43;;
19867;SDS011;10096;51.112;6.776;2023-09-18T06:48:05;8.65;;;4.18;;
19867;SDS011;10096;51.112;6.776;2023-09-18T06:50:32;7.78;;;3.60;;
19867;SDS011;10096;51.112;6.776;2023-09-18T06:53:00;5.07;;;3.70;;
19867;SDS011;10096;51.112;6.776;2023-09-18T06:55:27;4.78;;;3.78;;
19867;SDS011;10096;51.112;6.776;2023-09-18T06:57:57;8.45;;;4.20;;
19867;SDS011;10096;51.112;6.776;2023-09-18T07:00:25;5.97;;;3.92;;
19867;SDS011;10096;51.112;6.776;2023-09-18T07:02:52;6.15;;;4.15;;
19867;SDS011;10096;51.112;6.776;2023-09-18T07:05:20;8.13;;;3.45;;
19867;SDS011;10096;51.112;6.776;2023-09-18T07:07:47;9.85;;;4.97;;
19867;SDS011;10096;51.112;6.776;2023-09-18T07:10:16;7.22;;;4.05;;
19867;SDS011;10096;51.112;6.776;2023-09-18T07:12:44;5.63;;;3.72;;
19867;SDS011;10096;51.112;6.776;2023-09-18T07:15:11;6.55;;;4.60;;
19867;SDS011;10096;51.112;6.776;2023-09-18T07:17:42;3.72;;;3.28;;
19867;SDS011;10096;51.112;6.776;2023-09-18T07:20:10;5.78;;;3.97;;
19867;SDS011;10096;51.112;6.776;2023-09-18T07:22:40;4.25;;;3.35;;
19867;SDS011;10096;51.112;6.776;2023-09-18T07:25:07;6.30;;;3.80;;
19867;SDS011;10096;51.112;6.776;2023-09-18T07:27:35;4.82;;;3.13;;
19867;SDS011;10096;51.112;6.776;2023-09-18T07:30:04;7.13;;;3.28;;
19867;SDS011;10096;51.112;6.776;2023-09-18T07:32:32;4.40;;;3.28;;
19867;SDS011;10096;51.112;6.776;2023-09-18T07:34:59;5.72;;;3.08;;
19867;SDS011;10096;51.112;6.776;2023-09-18T07:37:26;4.60;;;3.13;;
19867;SDS011;10096;51.112;6.776;2023-09-18T07:39:53;13.27;;;3.55;;
19867;SDS011;10096;51.112;6.776;2023-09-18T07:42:19;5.05;;;2.92;;
19867;SDS011;10096;51.112;6.776;2023-09-18T07:44:51;3.60;;;2.63;;
19867;SDS011;10096;51.112;6.776;2023-09-18T07:47:18;4.78;;;2.40;;
19867;SDS011;10096;51.112;6.776;2023-09-18T07:49:45;3.17;;;2.60;;
19867;SDS011;10096;51.112;6.776;2023-09-18T07:52:12;3.65;;;2.78;;
19867;SDS011;10096;51.112;6.776;2023-09-18T07:54:39;4.57;;;2.63;;
19867;SDS011;10096;51.112;6.776;2023-09-18T07:57:06;3.88;;;2.60;;
19867;SDS011;10096;51.112;6.776;2023-09-18T07:59:36;5.80;;;2.67;;
19867;SDS011;10096;51.112;6.776;2023-09-18T08:02:05;4.55;;;3.58;;
19867;SDS011;10096;51.112;6.776;2023-09-18T08:04:34;5.38;;;3.03;;
19867;SDS011;10096;51.112;6.776;2023-09-18T08:07:09;2.55;;;2.22;;
19867;SDS011;10096;51.112;6.776;2023-09-18T08:09:37;4.20;;;2.45;;
19867;SDS011;10096;51.112;6.776;2023-09-18T08:12:05;4.25;;;2.65;;
19867;SDS011;10096;51.112;6.776;2023-09-18T08:14:34;3.88;;;2.90;;
19867;SDS011;10096;51.112;6.776;2023-09-18T08:17:03;4.40;;;2.42;;
19867;SDS011;10096;51.112;6.776;2023-09-18T08:19:32;4.93;;;3.20;;
19867;SDS011;10096;51.112;6.776;2023-09-18T08:22:02;7.20;;;3.03;;
19867;SDS011;10096;51.112;6.776;2023-09-18T08:24:31;4.93;;;2.78;;
19867;SDS011;10096;51.112;6.776;2023-09-18T08:27:01;2.92;;;2.50;;
19867;SDS011;10096;51.112;6.776;2023-09-18T08:29:29;5.20;;;3.30;;
19867;SDS011;10096;51.112;6.776;2023-09-18T08:31:56;4.65;;;2.35;;
19867;SDS011;10096;51.112;6.776;2023-09-18T08:34:25;4.10;;;2.53;;
19867;SDS011;10096;51.112;6.776;2023-09-18T08:36:53;2.95;;;2.65;;
19867;SDS011;10096;51.112;6.776;2023-09-18T08:39:19;4.25;;;2.97;;
19867;SDS011;10096;51.112;6.776;2023-09-18T08:41:47;3.60;;;3.28;;
19867;SDS011;10096;51.112;6.776;2023-09-18T08:44:20;4.38;;;3.45;;
19867;SDS011;10096;51.112;6.776;2023-09-18T08:46:52;4.13;;;2.10;;
19867;SDS011;10096;51.112;6.776;2023-09-18T08:49:20;3.72;;;2.47;;
19867;SDS011;10096;51.112;6.776;2023-09-18T08:51:49;3.72;;;2.60;;
19867;SDS011;10096;51.112;6.776;2023-09-18T08:54:17;2.40;;;2.15;;
19867;SDS011;10096;51.112;6.776;2023-09-18T08:56:45;3.55;;;2.17;;
19867;SDS011;10096;51.112;6.776;2023-09-18T08:59:12;5.05;;;2.72;;
19867;SDS011;10096;51.112;6.776;2023-09-18T09:01:39;5.35;;;4.50;;
19867;SDS011;10096;51.112;6.776;2023-09-18T09:04:06;3.10;;;2.70;;
19867;SDS011;10096;51.112;6.776;2023-09-18T09:06:33;3.55;;;2.47;;
19867;SDS011;10096;51.112;6.776;2023-09-18T09:09:02;3.33;;;2.35;;
19867;SDS011;10096;51.112;6.776;2023-09-18T09:11:33;4.40;;;2.70;;
19867;SDS011;10096;51.112;6.776;2023-09-18T09:14:10;3.05;;;2.47;;
19867;SDS011;10096;51.112;6.776;2023-09-18T09:16:46;4.72;;;2.30;;
19867;SDS011;10096;51.112;6.776;2023-09-18T09:19:13;3.78;;;2.55;;
19867;SDS011;10096;51.112;6.776;2023-09-18T09:21:42;3.65;;;2.50;;
19867;SDS011;10096;51.112;6.776;2023-09-18T09:24:11;2.97;;;2.38;;
19867;SDS011;10096;51.112;6.776;2023-09-18T09:26:39;4.35;;;2.70;;
19867;SDS011;10096;51.112;6.776;2023-09-18T09:29:19;4.13;;;2.38;;
19867;SDS011;10096;51.112;6.776;2023-09-18T09:31:46;3.60;;;2.50;;
19867;SDS011;10096;51.112;6.776;2023-09-18T09:34:16;3.42;;;2.13;;
19867;SDS011;10096;51.112;6.776;2023-09-18T09:36:51;3.25;;;2.20;;
19867;SDS011;10096;51.112;6.776;2023-09-18T09:39:19;3.25;;;2.20;;
19867;SDS011;10096;51.112;6.776;2023-09-18T09:41:47;3.60;;;2.17;;
19867;SDS011;10096;51.112;6.776;2023-09-18T09:44:15;2.83;;;2.38;;
19867;SDS011;10096;51.112;6.776;2023-09-18T09:46:48;3.42;;;2.47;;
19867;SDS011;10096;51.112;6.776;2023-09-18T09:49:16;5.10;;;2.67;;
19867;SDS011;10096;51.112;6.776;2023-09-18T09:51:44;7.60;;;4.68;;
19867;SDS011;10096;51.112;6.776;2023-09-18T09:54:14;3.08;;;2.80;;
19867;SDS011;10096;51.112;6.776;2023-09-18T09:56:58;2.70;;;2.50;;
19867;SDS011;10096;51.112;6.776;2023-09-18T09:59:29;5.55;;;2.55;;
19867;SDS011;10096;51.112;6.776;2023-09-18T10:01:59;3.35;;;2.63;;
19867;SDS011;10096;51.112;6.776;2023-09-18T10:04:27;3.33;;;2.60;;
19867;SDS011;10096;51.112;6.776;2023-09-18T10:06:58;4.22;;;2.67;;
19867;SDS011;10096;51.112;6.776;2023-09-18T10:09:33;2.97;;;2.10;;
19867;SDS011;10096;51.112;6.776;2023-09-18T10:12:02;4.80;;;2.53;;
19867;SDS011;10096;51.112;6.776;2023-09-18T10:14:35;3.80;;;2.72;;
19867;SDS011;10096;51.112;6.776;2023-09-18T10:17:07;2.90;;;2.60;;
19867;SDS011;10096;51.112;6.776;2023-09-18T10:19:39;2.83;;;2.17;;
19867;SDS011;10096;51.112;6.776;2023-09-18T10:22:11;3.50;;;2.40;;
19867;SDS011;10096;51.112;6.776;2023-09-18T10:24:47;2.55;;;2.35;;
19867;SDS011;10096;51.112;6.776;2023-09-18T10:27:17;4.03;;;3.63;;
19867;SDS011;10096;51.112;6.776;2023-09-18T10:29:48;4.43;;;3.17;;
19867;SDS011;10096;51.112;6.776;2023-09-18T10:32:18;4.85;;;2.80;;
19867;SDS011;10096;51.112;6.776;2023-09-18T10:34:46;3.47;;;2.20;;
19867;SDS011;10096;51.112;6.776;2023-09-18T10:37:14;3.97;;;2.45;;
19867;SDS011;10096;51.112;6.776;2023-09-18T10:39:41;3.85;;;2.47;;
19867;SDS011;10096;51.112;6.776;2023-09-18T10:42:10;3.35;;;2.70;;
19867;SDS011;10096;51.112;6.776;2023-09-18T10:44:39;3.50;;;2.42;;
19867;SDS011;10096;51.112;6.776;2023-09-18T10:47:08;4.45;;;2.75;;
19867;SDS011;10096;51.112;6.776;2023-09-18T10:49:41;4.68;;;2.40;;
19867;SDS011;10096;51.112;6.776;2023-09-18T10:52:10;6.72;;;2.65;;
19867;SDS011;10096;51.112;6.776;2023-09-18T10:54:38;4.70;;;2.50;;
19867;SDS011;10096;51.112;6.776;2023-09-18T10:57:09;2.70;;;2.50;;
19867;SDS011;10096;51.112;6.776;2023-09-18T10:59:42;3.42;;;2.58;;
19867;SDS011;10096;51.112;6.776;2023-09-18T11:02:13;5.43;;;3.08;;
19867;SDS011;10096;51.112;6.776;2023-09-18T11:04:43;4.05;;;2.70;;
19867;SDS011;10096;51.112;6.776;2023-09-18T11:07:19;2.85;;;2.05;;
19867;SDS011;10096;51.112;6.776;2023-09-18T11:09:46;4.43;;;2.50;;
19867;SDS011;10096;51.112;6.776;2023-09-18T11:12:17;4.13;;;2.33;;
19867;SDS011;10096;51.112;6.776;2023-09-18T11:14:45;4.70;;;2.78;;
19867;SDS011;10096;51.112;6.776;2023-09-18T11:17:33;3.00;;;2.33;;
19867;SDS011;10096;51.112;6.776;2023-09-18T11:20:04;6.28;;;4.88;;
19867;SDS011;10096;51.112;6.776;2023-09-18T11:22:34;2.60;;;2.30;;
19867;SDS011;10096;51.112;6.776;2023-09-18T11:28:12;4.35;;;2.60;;
19867;SDS011;10096;51.112;6.776;2023-09-18T11:30:49;4.18;;;2.35;;
19867;SDS011;10096;51.112;6.776;2023-09-18T11:33:31;3.97;;;2.50;;
19867;SDS011;10096;51.112;6.776;2023-09-18T11:36:03;4.20;;;2.83;;
19867;SDS011;10096;51.112;6.776;2023-09-18T11:38:34;3.63;;;2.30;;
19867;SDS011;10096;51.112;6.776;2023-09-18T11:41:22;3.25;;;2.50;;
19867;SDS011;10096;51.112;6.776;2023-09-18T11:43:57;6.75;;;3.70;;
19867;SDS011;10096;51.112;6.776;2023-09-18T11:47:06;4.32;;;3.92;;
19867;SDS011;10096;51.112;6.776;2023-09-18T11:49:37;3.38;;;2.38;;
19867;SDS011;10096;51.112;6.776;2023-09-18T11:52:09;3.72;;;2.80;;
19867;SDS011;10096;51.112;6.776;2023-09-18T11:54:39;3.85;;;2.40;;
19867;SDS011;10096;51.112;6.776;2023-09-18T11:57:06;3.60;;;2.42;;
19867;SDS011;10096;51.112;6.776;2023-09-18T11:59:36;5.30;;;3.03;;
19867;SDS011;10096;51.112;6.776;2023-09-18T12:02:04;3.67;;;2.38;;
19867;SDS011;10096;51.112;6.776;2023-09-18T12:04:33;3.92;;;2.85;;
19867;SDS011;10096;51.112;6.776;2023-09-18T12:07:00;3.13;;;2.60;;
19867;SDS011;10096;51.112;6.776;2023-09-18T12:09:31;2.50;;;2.28;;
19867;SDS011;10096;51.112;6.776;2023-09-18T12:12:04;8.50;;;3.53;;
19867;SDS011;10096;51.112;6.776;2023-09-18T12:14:33;3.63;;;2.35;;
19867;SDS011;10096;51.112;6.776;2023-09-18T12:17:01;2.88;;;2.28;;
19867;SDS011;10096;51.112;6.776;2023-09-18T12:19:32;3.38;;;2.75;;
19867;SDS011;10096;51.112;6.776;2023-09-18T12:22:00;3.30;;;3.00;;
19867;SDS011;10096;51.112;6.776;2023-09-18T12:24:27;4.70;;;2.50;;
19867;SDS011;10096;51.112;6.776;2023-09-18T12:26:56;3.40;;;2.03;;
19867;SDS011;10096;51.112;6.776;2023-09-18T12:29:29;2.60;;;2.22;;
19867;SDS011;10096;51.112;6.776;2023-09-18T12:31:59;3.65;;;2.72;;
19867;SDS011;10096;51.112;6.776;2023-09-18T12:34:31;4.40;;;2.33;;
19867;SDS011;10096;51.112;6.776;2023-09-18T12:36:59;3.05;;;2.75;;
19867;SDS011;10096;51.112;6.776;2023-09-18T12:39:31;5.28;;;2.47;;
19867;SDS011;10096;51.112;6.776;2023-09-18T12:42:03;3.50;;;2.63;;
19867;SDS011;10096;51.112;6.776;2023-09-18T12:44:31;3.58;;;3.17;;
19867;SDS011;10096;51.112;6.776;2023-09-18T12:46:58;3.45;;;2.40;;
19867;SDS011;10096;51.112;6.776;2023-09-18T12:49:26;5.15;;;2.95;;
19867;SDS011;10096;51.112;6.776;2023-09-18T12:51:57;3.15;;;2.50;;
19867;SDS011;10096;51.112;6.776;2023-09-18T12:54:38;2.90;;;2.40;;
19867;SDS011;10096;51.112;6.776;2023-09-18T12:57:07;3.78;;;3.25;;
19867;SDS011;10096;51.112;6.776;2023-09-18T12:59:36;4.82;;;2.88;;
19867;SDS011;10096;51.112;6.776;2023-09-18T13:02:03;2.65;;;2.45;;
19867;SDS011;10096;51.112;6.776;2023-09-18T13:04:36;3.97;;;2.88;;
19867;SDS011;10096;51.112;6.776;2023-09-18T13:07:05;3.47;;;2.70;;
19867;SDS011;10096;51.112;6.776;2023-09-18T13:09:33;3.08;;;2.63;;
19867;SDS011;10096;51.112;6.776;2023-09-18T13:12:03;2.97;;;2.55;;
19867;SDS011;10096;51.112;6.776;2023-09-18T13:14:49;3.97;;;2.47;;
19867;SDS011;10096;51.112;6.776;2023-09-18T13:17:28;3.97;;;2.50;;
19867;SDS011;10096;51.112;6.776;2023-09-18T13:20:06;4.45;;;2.50;;
19867;SDS011;10096;51.112;6.776;2023-09-18T13:22:38;3.05;;;2.75;;
19867;SDS011;10096;51.112;6.776;2023-09-18T13:25:05;3.67;;;2.88;;
19867;SDS011;10096;51.112;6.776;2023-09-18T13:27:33;4.82;;;2.88;;
19867;SDS011;10096;51.112;6.776;2023-09-18T13:30:01;4.25;;;2.60;;
19867;SDS011;10096;51.112;6.776;2023-09-18T13:32:32;4.88;;;2.72;;
19867;SDS011;10096;51.112;6.776;2023-09-18T13:35:02;3.80;;;2.58;;
19867;SDS011;10096;51.112;6.776;2023-09-18T13:37:30;4.43;;;2.35;;
19867;SDS011;10096;51.112;6.776;2023-09-18T13:39:58;2.97;;;2.55;;
19867;SDS011;10096;51.112;6.776;2023-09-18T13:42:27;3.95;;;2.63;;
19867;SDS011;10096;51.112;6.776;2023-09-18T13:44:56;2.90;;;2.60;;
19867;SDS011;10096;51.112;6.776;2023-09-18T13:47:29;4.65;;;3.88;;
19867;SDS011;10096;51.112;6.776;2023-09-18T13:49:56;4.60;;;3.17;;
19867;SDS011;10096;51.112;6.776;2023-09-18T13:52:25;3.45;;;2.40;;
19867;SDS011;10096;51.112;6.776;2023-09-18T13:54:52;3.40;;;2.90;;
19867;SDS011;10096;51.112;6.776;2023-09-18T13:57:19;8.95;;;3.13;;
19867;SDS011;10096;51.112;6.776;2023-09-18T13:59:46;4.40;;;2.42;;
19867;SDS011;10096;51.112;6.776;2023-09-18T14:02:16;3.65;;;2.80;;
19867;SDS011;10096;51.112;6.776;2023-09-18T14:04:45;2.90;;;2.28;;
19867;SDS011;10096;51.112;6.776;2023-09-18T14:07:12;4.88;;;2.80;;
19867;SDS011;10096;51.112;6.776;2023-09-18T14:09:39;4.43;;;2.90;;
19867;SDS011;10096;51.112;6.776;2023-09-18T14:12:06;3.00;;;2.60;;
19867;SDS011;10096;51.112;6.776;2023-09-18T14:14:34;4.80;;;2.50;;
19867;SDS011;10096;51.112;6.776;2023-09-18T14:17:01;2.72;;;2.50;;
19867;SDS011;10096;51.112;6.776;2023-09-18T14:19:29;2.88;;;2.45;;
19867;SDS011;10096;51.112;6.776;2023-09-18T14:21:57;6.82;;;4.20;;
19867;SDS011;10096;51.112;6.776;2023-09-18T14:24:28;4.20;;;2.80;;
19867;SDS011;10096;51.112;6.776;2023-09-18T14:27:03;3.95;;;2.60;;
19867;SDS011;10096;51.112;6.776;2023-09-18T14:29:31;2.78;;;2.58;;
19867;SDS011;10096;51.112;6.776;2023-09-18T14:31:58;5.00;;;3.03;;
19867;SDS011;10096;51.112;6.776;2023-09-18T14:34:26;5.30;;;2.70;;
19867;SDS011;10096;51.112;6.776;2023-09-18T14:36:53;5.90;;;3.88;;
19867;SDS011;10096;51.112;6.776;2023-09-18T14:39:24;4.18;;;2.70;;
19867;SDS011;10096;51.112;6.776;2023-09-18T14:41:52;4.30;;;2.80;;
19867;SDS011;10096;51.112;6.776;2023-09-18T14:44:19;3.20;;;2.50;;
19867;SDS011;10096;51.112;6.776;2023-09-18T14:46:51;3.40;;;2.10;;
19867;SDS011;10096;51.112;6.776;2023-09-18T14:49:22;4.47;;;2.67;;
19867;SDS011;10096;51.112;6.776;2023-09-18T14:51:49;3.97;;;2.22;;
19867;SDS011;10096;51.112;6.776;2023-09-18T14:54:18;3.65;;;2.83;;
19867;SDS011;10096;51.112;6.776;2023-09-18T14:56:49;7.13;;;3.67;;
19867;SDS011;10096;51.112;6.776;2023-09-18T14:59:16;3.90;;;2.67;;